Time;durP1;ratioP1;P1;durP2;ratioP2;P2;SDS_P1;SDS_P2;PMS_P1;PMS_P2;Temp;Humidity;BMP_temperature;BMP_pressure;BME280_temperature;BME280_humidity;BME280_pressure;Samples;Min_cycle;Max_cycle;Signal;HPM_P1;HPM_P2
2023/05/29 00:00:38;;;;;;;11.23;6.70;;;10.70;99.90;;;;;;20923876;28;20083;-47
2023/05/29 00:10:40;;;;;;;7.95;6.22;;;10.70;99.90;;;;;;20911472;28;20036;-50
2023/05/29 00:20:41;;;;;;;10.93;6.28;;;10.70;99.90;;;;;;20915302;28;20042;-56
2023/05/29 00:30:43;;;;;;;11.88;6.75;;;10.90;99.90;;;;;;20910189;28;20040;-57
2023/05/29 00:40:45;;;;;;;8.50;6.22;;;11.30;99.90;;;;;;20908614;28;20041;-48
2023/05/29 00:50:46;;;;;;;9.77;6.65;;;11.60;99.90;;;;;;20908440;28;20037;-52
2023/05/29 01:00:48;;;;;;;9.02;6.45;;;11.70;99.90;;;;;;20908232;28;20055;-47
2023/05/29 01:10:56;;;;;;;9.98;7.07;;;11.70;99.90;;;;;;20908141;28;20075;-48
2023/05/29 01:21:19;;;;;;;9.35;6.68;;;11.50;99.90;;;;;;20910667;28;20033;-57
2023/05/29 01:31:25;;;;;;;11.98;7.20;;;11.40;99.90;;;;;;20909740;28;20338;-47
2023/05/29 01:41:28;;;;;;;8.77;6.35;;;11.70;99.90;;;;;;20905116;28;20071;-57
2023/05/29 01:51:31;;;;;;;8.77;5.68;;;11.90;99.90;;;;;;20905659;28;20044;-51
2023/05/29 02:01:33;;;;;;;7.80;5.70;;;11.90;99.90;;;;;;20907626;28;20536;-46
2023/05/29 02:11:34;;;;;;;8.10;5.82;;;11.90;99.90;;;;;;20901693;28;20028;-48
2023/05/29 02:21:42;;;;;;;7.45;5.47;;;12.00;99.90;;;;;;20900451;28;20098;-51
2023/05/29 02:31:44;;;;;;;9.35;6.43;;;12.00;99.90;;;;;;20904961;28;20082;-47
2023/05/29 02:41:46;;;;;;;11.75;7.30;;;11.90;99.90;;;;;;20904940;28;20045;-47
2023/05/29 02:51:48;;;;;;;11.02;7.88;;;11.50;99.90;;;;;;20886885;28;20032;-49
2023/05/29 03:01:50;;;;;;;10.95;7.60;;;11.10;99.90;;;;;;20903172;28;20041;-49
2023/05/29 03:11:53;;;;;;;10.20;7.68;;;10.70;99.90;;;;;;20915589;28;20029;-54
2023/05/29 03:21:54;;;;;;;11.48;6.82;;;10.60;99.90;;;;;;20918034;28;20386;-46
2023/05/29 03:31:56;;;;;;;8.95;6.80;;;10.60;99.90;;;;;;20925110;28;20063;-46
2023/05/29 03:42:02;;;;;;;10.68;6.68;;;10.70;99.90;;;;;;20910415;28;20370;-47
2023/05/29 03:52:05;;;;;;;9.05;6.45;;;10.90;99.90;;;;;;20912530;28;20376;-46
2023/05/29 04:02:06;;;;;;;7.70;5.55;;;10.90;99.90;;;;;;20916702;28;20076;-50
2023/05/29 04:12:08;;;;;;;8.05;5.00;;;10.90;99.90;;;;;;20910414;28;20040;-58
2023/05/29 04:22:10;;;;;;;8.45;5.53;;;10.90;99.90;;;;;;20906582;28;20531;-58
2023/05/29 04:32:13;;;;;;;8.15;5.90;;;10.90;99.90;;;;;;20916397;28;20025;-57
2023/05/29 04:42:15;;;;;;;9.45;5.60;;;10.90;99.90;;;;;;20913954;28;20037;-50
2023/05/29 04:52:17;;;;;;;8.50;5.82;;;11.00;99.90;;;;;;20913667;28;20343;-58
2023/05/29 05:02:18;;;;;;;9.32;6.20;;;11.20;99.90;;;;;;20914963;28;20394;-57
2023/05/29 05:12:20;;;;;;;11.18;6.47;;;11.30;99.90;;;;;;20909999;28;20106;-48
2023/05/29 05:22:22;;;;;;;11.02;6.82;;;11.40;99.90;;;;;;20905159;28;20040;-58
2023/05/29 05:32:25;;;;;;;9.07;5.88;;;11.70;99.90;;;;;;20905388;28;20059;-47
2023/05/29 05:42:35;;;;;;;10.52;6.25;;;12.00;99.90;;;;;;20907977;28;20067;-51
2023/05/29 05:52:41;;;;;;;10.02;5.72;;;12.40;99.90;;;;;;20906761;28;20040;-47
2023/05/29 06:02:44;;;;;;;7.40;4.55;;;13.20;99.90;;;;;;20911098;28;20029;-47
2023/05/29 06:12:52;;;;;;;6.35;4.80;;;14.30;99.90;;;;;;20902208;28;20486;-52
2023/05/29 06:22:59;;;;;;;7.13;4.70;;;16.60;99.90;;;;;;20900958;28;20063;-50
2023/05/29 06:33:03;;;;;;;5.90;4.10;;;17.90;99.90;;;;;;20897286;28;20405;-49
2023/05/29 06:43:06;;;;;;;6.72;4.20;;;19.00;99.90;;;;;;20903617;28;20433;-58
2023/05/29 06:53:14;;;;;;;7.50;4.20;;;19.70;98.60;;;;;;20891098;28;20102;-58
2023/05/29 07:03:26;;;;;;;4.05;3.40;;;20.60;97.30;;;;;;20898337;28;20371;-58
2023/05/29 07:13:28;;;;;;;5.35;4.38;;;22.70;94.80;;;;;;20900768;28;20020;-50
2023/05/29 07:23:30;;;;;;;4.10;3.63;;;23.60;95.00;;;;;;20901643;28;20025;-58
2023/05/29 07:33:32;;;;;;;6.30;4.43;;;24.00;94.50;;;;;;20903863;28;20041;-50
2023/05/29 07:43:34;;;;;;;5.18;4.55;;;24.60;95.00;;;;;;20896456;28;20036;-49
2023/05/29 07:53:39;;;;;;;5.83;4.63;;;24.60;94.30;;;;;;20910266;28;20413;-50
2023/05/29 08:03:43;;;;;;;4.68;4.18;;;24.10;92.70;;;;;;20902624;28;20090;-58
2023/05/29 08:14:07;;;;;;;5.72;4.90;;;24.20;95.60;;;;;;20912941;28;20033;-59
2023/05/29 08:24:09;;;;;;;7.90;5.82;;;25.40;92.10;;;;;;20910415;28;20033;-58
2023/05/29 08:34:11;;;;;;;6.30;4.47;;;23.80;94.00;;;;;;20909996;28;20041;-58
2023/05/29 08:44:14;;;;;;;7.57;4.78;;;23.40;96.10;;;;;;20908551;28;20033;-58
2023/05/29 08:54:16;;;;;;;6.00;4.38;;;25.10;94.40;;;;;;20908584;28;20037;-58
2023/05/29 09:04:18;;;;;;;5.13;4.63;;;25.40;94.10;;;;;;20909783;28;20095;-58
2023/05/29 09:14:37;;;;;;;6.18;5.43;;;26.00;91.30;;;;;;20910330;28;20083;-58
2023/05/29 09:24:38;;;;;;;8.73;6.03;;;23.50;94.40;;;;;;20909291;28;20551;-57
2023/05/29 09:34:43;;;;;;;8.85;5.82;;;21.90;95.70;;;;;;20909121;28;20037;-57
2023/05/29 09:44:48;;;;;;;9.20;6.53;;;20.70;98.90;;;;;;20905155;28;20033;-57
2023/05/29 09:54:50;;;;;;;9.82;7.13;;;20.00;99.40;;;;;;20908154;28;20041;-57
2023/05/29 10:04:52;;;;;;;9.00;6.97;;;19.50;99.90;;;;;;20903917;28;20382;-57
2023/05/29 10:14:59;;;;;;;12.07;7.95;;;19.20;99.90;;;;;;20902390;28;20037;-57
2023/05/29 10:25:02;;;;;;;12.45;8.50;;;19.40;99.90;;;;;;20898104;28;20032;-57
2023/05/29 10:35:16;;;;;;;10.02;7.57;;;19.10;99.90;;;;;;20909335;28;20041;-57
2023/05/29 10:45:30;;;;;;;10.90;7.45;;;19.50;99.90;;;;;;20902601;28;20551;-57
2023/05/29 10:55:36;;;;;;;8.43;6.75;;;19.50;99.90;;;;;;20902619;28;20040;-53
2023/05/29 11:05:59;;;;;;;10.73;8.10;;;18.40;99.90;;;;;;20901429;28;20390;-57
2023/05/29 11:16:35;;;;;;;11.77;7.80;;;18.20;99.90;;;;;;20896908;28;20497;-58
2023/05/29 11:26:38;;;;;;;12.13;7.68;;;18.10;99.90;;;;;;20903347;28;20386;-57
2023/05/29 11:36:40;;;;;;;14.88;7.68;;;18.00;99.90;;;;;;20914527;28;20048;-57
2023/05/29 11:46:42;;;;;;;11.95;8.60;;;18.10;99.90;;;;;;20913742;28;20523;-57
2023/05/29 11:56:44;;;;;;;11.88;8.50;;;18.70;99.90;;;;;;20919150;28;20040;-57
2023/05/29 12:06:45;;;;;;;11.77;8.40;;;19.60;99.90;;;;;;20909971;28;20482;-57
2023/05/29 12:16:47;;;;;;;11.13;9.10;;;20.00;99.90;;;;;;20913274;28;20033;-58
2023/05/29 12:26:48;;;;;;;10.15;8.50;;;20.20;99.90;;;;;;20910993;28;20114;-57
2023/05/29 12:36:50;;;;;;;10.98;7.75;;;20.40;99.90;;;;;;20907592;28;20079;-57
2023/05/29 12:46:57;;;;;;;11.63;7.93;;;19.90;99.90;;;;;;20907642;28;20094;-53
2023/05/29 12:57:00;;;;;;;10.60;7.18;;;19.00;99.90;;;;;;20906303;28;20382;-57
2023/05/29 13:07:03;;;;;;;11.18;5.95;;;18.50;99.90;;;;;;20910866;28;20044;-46
2023/05/29 13:17:05;;;;;;;5.75;3.85;;;17.80;99.90;;;;;;20909387;28;20033;-57
2023/05/29 13:27:07;;;;;;;11.73;6.97;;;17.10;98.70;;;;;;20906311;28;20032;-57
2023/05/29 13:37:08;;;;;;;8.55;5.90;;;17.20;99.90;;;;;;20905375;28;20094;-58
2023/05/29 13:47:10;;;;;;;9.30;4.82;;;18.70;99.90;;;;;;20903819;28;20033;-58
2023/05/29 13:57:12;;;;;;;6.78;4.93;;;21.80;98.50;;;;;;20905371;28;20040;-59
2023/05/29 14:07:13;;;;;;;6.13;4.88;;;22.60;95.20;;;;;;20904054;28;20033;-58
2023/05/29 14:17:15;;;;;;;8.68;5.40;;;23.40;94.80;;;;;;20907016;28;20040;-59
2023/05/29 14:27:16;;;;;;;7.18;5.15;;;24.00;93.70;;;;;;20900584;28;20056;-58
2023/05/29 14:37:19;;;;;;;8.15;5.05;;;24.30;92.80;;;;;;20904669;28;20063;-57
2023/05/29 14:47:21;;;;;;;6.43;4.60;;;22.30;94.60;;;;;;20903463;28;20036;-57
2023/05/29 14:57:23;;;;;;;7.53;5.50;;;21.10;97.50;;;;;;20905038;28;20029;-57
2023/05/29 15:07:24;;;;;;;6.05;4.75;;;20.70;96.70;;;;;;20917035;28;20067;-57
2023/05/29 15:17:26;;;;;;;9.45;4.93;;;20.80;98.80;;;;;;20916412;28;20032;-57
2023/05/29 15:27:30;;;;;;;6.40;4.25;;;21.30;97.80;;;;;;20914824;28;20040;-47
2023/05/29 15:37:33;;;;;;;6.93;5.00;;;22.60;95.00;;;;;;20925970;28;20037;-48
2023/05/29 15:47:35;;;;;;;6.75;4.80;;;23.10;93.90;;;;;;20917935;28;20370;-58
2023/05/29 15:57:36;;;;;;;6.68;4.30;;;22.10;94.40;;;;;;20916341;28;20029;-57
2023/05/29 16:07:38;;;;;;;6.15;4.60;;;21.00;95.60;;;;;;20914115;28;20024;-57
2023/05/29 16:17:43;;;;;;;6.32;4.32;;;20.30;96.00;;;;;;20911238;28;20029;-56
2023/05/29 16:27:45;;;;;;;8.80;5.13;;;19.70;96.30;;;;;;20908049;28;20500;-51
2023/05/29 16:37:46;;;;;;;6.50;4.50;;;19.40;96.10;;;;;;20915585;28;20048;-57
2023/05/29 16:47:48;;;;;;;6.57;4.88;;;19.10;97.40;;;;;;20914215;28;20470;-57
2023/05/29 16:57:49;;;;;;;8.60;5.88;;;18.50;99.90;;;;;;20911516;28;20036;-57
2023/05/29 17:07:51;;;;;;;7.80;5.55;;;18.30;99.90;;;;;;20908443;28;20064;-57
2023/05/29 17:17:54;;;;;;;8.15;5.25;;;18.00;99.90;;;;;;20906825;28;20033;-57
2023/05/29 17:27:57;;;;;;;7.05;5.00;;;17.70;99.90;;;;;;20906219;28;20037;-57
2023/05/29 17:38:00;;;;;;;9.82;5.13;;;17.10;99.90;;;;;;20902961;28;20506;-57
2023/05/29 17:48:02;;;;;;;8.32;5.40;;;16.40;99.90;;;;;;20912724;28;20099;-49
2023/05/29 17:58:04;;;;;;;7.93;5.22;;;15.80;99.90;;;;;;20903328;28;20087;-57
2023/05/29 18:08:05;;;;;;;8.65;6.32;;;15.40;99.90;;;;;;20902626;28;20432;-56
2023/05/29 18:18:07;;;;;;;12.32;6.28;;;14.80;99.90;;;;;;20906693;28;20044;-57
2023/05/29 18:28:08;;;;;;;12.48;6.72;;;14.20;99.90;;;;;;20905728;28;20090;-56
2023/05/29 18:38:11;;;;;;;13.90;7.60;;;13.60;99.90;;;;;;20904085;28;20075;-56
2023/05/29 18:48:13;;;;;;;13.00;7.15;;;13.10;99.90;;;;;;20904940;28;20037;-47
2023/05/29 18:58:15;;;;;;;10.95;7.70;;;12.70;99.90;;;;;;20909059;28;20435;-56
2023/05/29 19:08:17;;;;;;;11.70;7.93;;;12.40;99.90;;;;;;20905224;28;20363;-51
2023/05/29 19:18:19;;;;;;;14.20;7.97;;;12.20;99.90;;;;;;20911781;28;20075;-56
2023/05/29 19:28:20;;;;;;;14.73;7.90;;;12.20;99.90;;;;;;20899851;28;20040;-56
2023/05/29 19:38:22;;;;;;;14.98;7.70;;;12.20;99.90;;;;;;20903872;28;20041;-56
2023/05/29 19:48:24;;;;;;;13.68;7.85;;;12.20;99.90;;;;;;20911743;28;20428;-49
2023/05/29 19:58:25;;;;;;;10.77;7.20;;;11.90;99.90;;;;;;20925246;28;20040;-56
2023/05/29 20:08:29;;;;;;;10.73;6.70;;;11.70;99.90;;;;;;20912793;28;20032;-56
2023/05/29 20:18:31;;;;;;;10.90;6.85;;;11.80;99.90;;;;;;20916482;28;20029;-57
2023/05/29 20:28:33;;;;;;;10.18;6.80;;;11.90;99.90;;;;;;20910140;28;20086;-56
2023/05/29 20:38:38;;;;;;;12.10;7.30;;;12.00;99.90;;;;;;20917017;28;20099;-56
2023/05/29 20:48:39;;;;;;;12.73;7.03;;;12.10;99.90;;;;;;20910429;28;20044;-56
2023/05/29 20:58:44;;;;;;;11.52;7.53;;;12.10;99.90;;;;;;20907541;28;20091;-56
2023/05/29 21:08:46;;;;;;;11.38;7.80;;;12.10;99.90;;;;;;20913163;28;20041;-56
2023/05/29 21:18:47;;;;;;;14.52;8.32;;;12.00;99.90;;;;;;20907720;28;20055;-56
2023/05/29 21:28:49;;;;;;;10.25;6.90;;;12.10;99.90;;;;;;20906622;28;20051;-56
2023/05/29 21:38:52;;;;;;;14.05;6.90;;;12.20;99.90;;;;;;20909387;28;20049;-46
2023/05/29 21:48:53;;;;;;;10.55;5.80;;;12.30;99.90;;;;;;20904597;28;20037;-56
2023/05/29 21:58:56;;;;;;;8.40;4.93;;;12.30;99.90;;;;;;20910159;28;20490;-56
2023/05/29 22:08:57;;;;;;;9.18;5.32;;;12.30;99.90;;;;;;20903041;28;20048;-56
2023/05/29 22:18:59;;;;;;;9.05;5.50;;;12.30;99.90;;;;;;20907159;28;20124;-56
2023/05/29 22:29:01;;;;;;;9.50;5.50;;;12.20;99.90;;;;;;20906207;28;20032;-51
2023/05/29 22:39:03;;;;;;;7.85;5.30;;;12.10;99.90;;;;;;20902403;28;20057;-47
2023/05/29 22:49:05;;;;;;;7.35;5.72;;;12.00;99.90;;;;;;20901884;28;20033;-56
2023/05/29 22:59:07;;;;;;;9.95;5.47;;;12.00;99.90;;;;;;20909735;28;20033;-46
2023/05/29 23:09:10;;;;;;;13.13;6.43;;;12.10;99.90;;;;;;20900281;28;20474;-47
2023/05/29 23:19:11;;;;;;;8.60;5.22;;;12.10;99.90;;;;;;20905342;28;20033;-46
2023/05/29 23:29:13;;;;;;;8.23;5.93;;;12.20;99.90;;;;;;20921783;28;20031;-56
2023/05/29 23:39:15;;;;;;;10.23;5.40;;;12.20;99.90;;;;;;20914976;28;20110;-56
2023/05/29 23:49:16;;;;;;;11.65;6.45;;;12.30;99.90;;;;;;20918807;28;20371;-56
2023/05/29 23:59:19;;;;;;;9.55;6.13;;;12.30;99.90;;;;;;20914124;28;20055;-45
